Sawyer International Airport
KSAW : now visible

Airfield :











YOU CAN JOIN US ON...

 
LOGIN :

Register | Disclaimer

   EN    FR    IT 

 









Legend :    VFR   Marginal VFR   IFR   Intensive IFR   Very Intensive IFR
Visi :
Ceiling :
>= 8 km
>= 3000ft
5 to 8 km
1000 to 3000 ft
1500m to 5 km
500 to 1000 ft
800 to 1500m
200 to 500 ft
< 800m
< 200 ft
Symbols :   Thunderstorms  Fog  Heavy snow  Heavy precipitations  Wind > 20 kt






- Airport Elevation : 1221 ft


KSAW - Sawyer International

CURRENT METAR :
  • 041547Z 31008KT 10SM BKN024 M01/M06 A2988

EXPIRED METARs :
  • 041446Z 32007KT 10SM BKN022 M02/M06 A2987
  • 041347Z 32010KT 10SM BKN022 M02/M07 A2986
  • 041247Z 31009KT 10SM OVC022 M02/M06 A2985
  • 041147Z 31009KT 10SM OVC022 M02/M06 A2984
  • 041058Z AUTO 32007KT 10SM OVC022 M02/M06 A2984 RMK AO2

TAF KSAW
Valid from the 04 at 12:00 until the 05 at 12:00 UTC


041120Z 0412/0512 33005KT P6SM SCT028
TEMPO 0412/0416 OVC025
FM050300 00000KT P6SM BKN035
KZMP FIR / North America



MET'MAP, your aeronautical weather chart ! - Copyright ORBIFLY December 2007 - Disclaimer

ORBIFLY MET'MAP TEAM :

Programming & Development : Alexandra Zaïnal
Original concept : Baudouin d'Aumeries
Technical & hardware support : Manuel Goepfert
Assistance : Marc-Olivier Méhu




SOURCES & CREDITS :

   NOAA       Earth
Advisory